createdAt,value
2023-06-16T00:01:16.337Z,101865.13
2023-06-16T00:03:44.998Z,101860.16
2023-06-16T00:06:15.466Z,101857.72
2023-06-16T00:08:46.115Z,101854.47
2023-06-16T00:11:14.919Z,101853.91
2023-06-16T00:13:43.328Z,101859.16
2023-06-16T00:16:14.208Z,101858.56
2023-06-16T00:18:45.248Z,101854.00
2023-06-16T00:21:15.577Z,101851.47
2023-06-16T00:23:43.055Z,101858.84
2023-06-16T00:26:10.309Z,101855.16
2023-06-16T00:28:37.549Z,101850.22
2023-06-16T00:31:04.795Z,101845.28
2023-06-16T00:33:31.972Z,101847.53
2023-06-16T00:36:00.312Z,101852.06
2023-06-16T00:38:28.814Z,101848.81
2023-06-16T00:40:56.277Z,101844.28
2023-06-16T00:43:23.504Z,101851.47
2023-06-16T00:45:51.491Z,101848.06
2023-06-16T00:48:18.999Z,101848.06
2023-06-16T00:50:46.702Z,101840.16
2023-06-16T00:53:14.356Z,101835.50
2023-06-16T00:55:42.167Z,101857.94
2023-06-16T00:58:09.381Z,101854.53
2023-06-16T01:00:39.469Z,101853.13
2023-06-16T01:03:10.387Z,101844.50
2023-06-16T01:05:37.997Z,101850.00
2023-06-16T01:08:12.672Z,101842.53
2023-06-16T01:10:55.348Z,101836.19
2023-06-16T01:13:43.418Z,101842.81
2023-06-16T01:16:12.302Z,101848.16
2023-06-16T01:18:45.340Z,101834.75
2023-06-16T01:21:43.237Z,101842.38
2023-06-16T01:24:15.190Z,101850.09
2023-06-16T01:26:48.713Z,101849.84
2023-06-16T01:29:16.256Z,101852.34
2023-06-16T01:31:45.182Z,101847.28
2023-06-16T01:34:13.598Z,101849.97
2023-06-16T01:36:42.980Z,101843.06
2023-06-16T01:39:16.178Z,101846.84
2023-06-16T01:41:44.305Z,101847.41
2023-06-16T01:44:12.042Z,101846.25
2023-06-16T01:46:39.563Z,101845.56
2023-06-16T01:49:07.366Z,101842.16
2023-06-16T01:51:34.803Z,101841.31
2023-06-16T01:54:02.049Z,101834.25
2023-06-16T01:56:30.699Z,101835.78
2023-06-16T01:58:58.334Z,101838.72
2023-06-16T02:01:31.065Z,101830.69
2023-06-16T02:04:07.833Z,101831.94
2023-06-16T02:06:57.280Z,101831.94
2023-06-16T02:09:27.143Z,101825.16
2023-06-16T02:11:56.058Z,101820.22
2023-06-16T02:14:23.600Z,101820.38
2023-06-16T02:16:52.067Z,101817.44
2023-06-16T02:19:19.325Z,101817.44
2023-06-16T02:21:46.925Z,101823.50
2023-06-16T02:24:14.134Z,101816.56
2023-06-16T02:26:41.411Z,101820.38
2023-06-16T02:29:08.601Z,101819.06
2023-06-16T02:31:35.915Z,101826.00
2023-06-16T02:34:03.117Z,101816.84
2023-06-16T02:36:30.571Z,101822.72
2023-06-16T02:38:57.994Z,101818.44
2023-06-16T02:41:25.209Z,101821.13
2023-06-16T02:43:52.489Z,101819.00
2023-06-16T02:46:19.717Z,101819.59
2023-06-16T02:48:47.087Z,101818.84
2023-06-16T02:51:14.410Z,101816.00
2023-06-16T02:53:42.765Z,101815.28
2023-06-16T02:56:09.980Z,101820.91
2023-06-16T02:58:37.249Z,101822.75
2023-06-16T03:01:05.739Z,101826.66
2023-06-16T03:03:33.989Z,101818.22
2023-06-16T03:06:01.732Z,101821.59
2023-06-16T03:08:29.513Z,101809.47
2023-06-16T03:10:56.732Z,101813.38
2023-06-16T03:13:23.943Z,101819.34
2023-06-16T03:15:52.053Z,101819.13
2023-06-16T03:18:19.466Z,101818.94
2023-06-16T03:20:48.582Z,101825.03
2023-06-16T03:23:16.240Z,101816.72
2023-06-16T03:25:43.386Z,101824.00
2023-06-16T03:28:10.608Z,101821.31
2023-06-16T03:30:37.786Z,101814.22
2023-06-16T03:33:05.141Z,101817.75
2023-06-16T03:35:32.359Z,101812.16
2023-06-16T03:37:59.538Z,101808.69
2023-06-16T03:40:26.714Z,101809.53
2023-06-16T03:42:54.015Z,101803.69
2023-06-16T03:45:21.362Z,101807.38
2023-06-16T03:47:48.578Z,101811.47
2023-06-16T03:50:15.950Z,101818.00
2023-06-16T03:52:43.268Z,101818.28
2023-06-16T03:55:10.520Z,101809.56
2023-06-16T03:57:40.471Z,101827.25
2023-06-16T04:00:11.575Z,101824.75
2023-06-16T04:02:38.843Z,101825.19
2023-06-16T04:05:07.398Z,101830.94
2023-06-16T04:07:35.617Z,101836.56
2023-06-16T04:10:03.672Z,101831.50
2023-06-16T04:12:30.860Z,101833.03
2023-06-16T04:14:59.078Z,101824.75
2023-06-16T04:17:26.325Z,101822.91
2023-06-16T04:19:53.589Z,101826.44
2023-06-16T04:22:20.872Z,101821.38
2023-06-16T04:24:48.148Z,101816.00
2023-06-16T04:27:16.461Z,101819.13
2023-06-16T04:29:43.822Z,101826.75
2023-06-16T04:32:12.584Z,101829.31
2023-06-16T04:34:40.196Z,101825.66
2023-06-16T04:37:10.945Z,101824.91
2023-06-16T04:39:38.958Z,101823.53
2023-06-16T04:42:09.194Z,101814.50
2023-06-16T04:44:37.032Z,101811.97
2023-06-16T04:47:04.491Z,101807.75
2023-06-16T04:49:32.151Z,101809.63
2023-06-16T04:51:59.472Z,101814.16
2023-06-16T04:54:27.134Z,101811.59
2023-06-16T04:56:54.328Z,101808.22
2023-06-16T04:59:23.669Z,101811.19
2023-06-16T05:01:51.388Z,101810.75
2023-06-16T05:04:18.883Z,101807.63
2023-06-16T05:06:46.088Z,101815.69
2023-06-16T05:09:13.447Z,101806.09
2023-06-16T05:11:40.993Z,101806.53
2023-06-16T05:14:08.297Z,101806.53
2023-06-16T05:16:36.011Z,101802.84
2023-06-16T05:19:04.154Z,101803.69
2023-06-16T05:21:31.551Z,101812.31
2023-06-16T05:24:01.517Z,101808.84
2023-06-16T05:26:29.021Z,101804.88
2023-06-16T05:28:56.163Z,101805.59
2023-06-16T05:31:23.406Z,101799.81
2023-06-16T05:33:50.767Z,101805.63
2023-06-16T05:36:18.038Z,101808.44
2023-06-16T05:38:45.511Z,101806.47
2023-06-16T05:41:12.657Z,101803.50
2023-06-16T05:43:39.860Z,101803.78
2023-06-16T05:46:06.973Z,101791.94
2023-06-16T05:48:34.095Z,101799.81
2023-06-16T05:51:01.275Z,101805.63
2023-06-16T05:53:28.733Z,101808.44
2023-06-16T05:55:58.843Z,101805.59
2023-06-16T05:58:26.367Z,101796.56
2023-06-16T06:00:53.542Z,101802.91
2023-06-16T06:03:21.555Z,101803.59
2023-06-16T06:05:49.074Z,101802.31
2023-06-16T06:08:16.312Z,101805.00
2023-06-16T06:10:43.494Z,101807.56
2023-06-16T06:13:10.935Z,101806.84
2023-06-16T06:15:38.173Z,101804.16
2023-06-16T06:18:08.172Z,101804.03
2023-06-16T06:20:35.419Z,101799.53
2023-06-16T06:23:02.612Z,101804.47
2023-06-16T06:25:29.929Z,101807.00
2023-06-16T06:27:57.237Z,101801.63
2023-06-16T06:30:26.124Z,101803.50
2023-06-16T06:32:53.340Z,101799.56
2023-06-16T06:35:20.565Z,101810.00
2023-06-16T06:37:47.762Z,101807.91
2023-06-16T06:40:15.014Z,101802.78
2023-06-16T06:42:42.198Z,101805.47
2023-06-16T06:45:11.732Z,101809.63
2023-06-16T06:47:39.196Z,101808.66
2023-06-16T06:50:07.273Z,101807.22
2023-06-16T06:52:34.536Z,101799.75
2023-06-16T06:55:01.909Z,101798.19
2023-06-16T06:57:29.369Z,101798.47
2023-06-16T06:59:56.539Z,101796.91
2023-06-16T07:02:25.166Z,101804.66
2023-06-16T07:04:52.484Z,101799.84
2023-06-16T07:07:19.783Z,101800.97
2023-06-16T07:09:46.935Z,101805.78
2023-06-16T07:12:14.110Z,101799.69
2023-06-16T07:14:41.424Z,101804.78
2023-06-16T07:17:08.588Z,101804.06
2023-06-16T07:19:35.908Z,101803.63
2023-06-16T07:22:03.184Z,101808.16
2023-06-16T07:24:30.492Z,101816.50
2023-06-16T07:26:57.793Z,101805.88
2023-06-16T07:29:24.963Z,101806.13
2023-06-16T07:31:52.218Z,101806.44
2023-06-16T07:34:19.920Z,101805.38
2023-06-16T07:36:47.340Z,101801.16
2023-06-16T07:39:19.000Z,101793.41
2023-06-16T07:41:46.196Z,101806.94
2023-06-16T07:44:13.441Z,101810.75
2023-06-16T07:46:41.468Z,101810.00
2023-06-16T07:49:08.694Z,101805.63
2023-06-16T07:51:36.505Z,101809.84
2023-06-16T07:54:04.627Z,101804.81
2023-06-16T07:56:31.801Z,101806.38
2023-06-16T07:58:59.106Z,101800.28
2023-06-16T08:01:26.304Z,101798.00
2023-06-16T08:03:54.013Z,101798.22
2023-06-16T08:06:21.416Z,101790.56
2023-06-16T08:08:48.939Z,101787.13
2023-06-16T08:11:16.304Z,101789.75
2023-06-16T08:13:43.549Z,101785.19
2023-06-16T08:16:10.848Z,101781.88
2023-06-16T08:18:39.116Z,101781.13
2023-06-16T08:21:09.347Z,101787.53
2023-06-16T08:23:36.798Z,101787.31
2023-06-16T08:26:06.288Z,101792.94
2023-06-16T08:28:33.471Z,101786.88
2023-06-16T08:31:00.805Z,101792.16
2023-06-16T08:33:28.080Z,101786.81
2023-06-16T08:35:55.391Z,101789.91
2023-06-16T08:38:22.710Z,101797.81
2023-06-16T08:40:50.274Z,101788.38
2023-06-16T08:43:17.979Z,101792.75
2023-06-16T08:45:46.645Z,101789.38
2023-06-16T08:48:14.720Z,101783.53
2023-06-16T08:50:42.215Z,101780.53
2023-06-16T08:53:12.610Z,101776.88
2023-06-16T08:55:42.165Z,101774.56
2023-06-16T08:58:12.968Z,101773.00
2023-06-16T09:00:42.066Z,101776.34
2023-06-16T09:03:09.852Z,101780.81
2023-06-16T09:05:37.859Z,101780.13
2023-06-16T09:08:06.831Z,101778.13
2023-06-16T09:10:36.844Z,101784.28
2023-06-16T09:13:04.239Z,101793.50
2023-06-16T09:15:35.299Z,101786.34
2023-06-16T09:18:07.778Z,101794.97
2023-06-16T09:20:39.399Z,101780.84
2023-06-16T09:23:06.592Z,101781.22
2023-06-16T09:25:35.557Z,101785.00
2023-06-16T09:28:10.915Z,101784.00
2023-06-16T09:30:42.401Z,101791.63
2023-06-16T09:33:11.506Z,101785.06
2023-06-16T09:35:41.816Z,101780.09
2023-06-16T09:38:11.465Z,101774.69
2023-06-16T09:40:40.161Z,101774.69
2023-06-16T09:43:27.257Z,101783.13
2023-06-16T09:46:15.680Z,101781.94
2023-06-16T09:49:05.806Z,101774.25
2023-06-16T09:51:54.276Z,101779.81
2023-06-16T09:54:41.386Z,101779.91
2023-06-16T09:57:29.079Z,101782.78
2023-06-16T10:00:20.007Z,101778.72
2023-06-16T10:03:11.100Z,101775.78
2023-06-16T10:06:04.687Z,101789.31
2023-06-16T10:08:53.201Z,101777.25
2023-06-16T10:11:40.912Z,101785.38
2023-06-16T10:14:32.674Z,101773.25
2023-06-16T10:17:21.515Z,101771.59
2023-06-16T10:20:15.041Z,101774.28
2023-06-16T10:23:02.539Z,101776.97
2023-06-16T10:25:50.649Z,101771.28
2023-06-16T10:28:37.998Z,101772.00
2023-06-16T10:31:29.131Z,101772.66
2023-06-16T10:34:21.087Z,101769.63
2023-06-16T10:36:50.388Z,101762.66
2023-06-16T10:39:18.034Z,101754.97
2023-06-16T10:41:57.018Z,101756.47
2023-06-16T10:44:28.224Z,101750.94
2023-06-16T10:47:11.072Z,101750.94
2023-06-16T10:50:17.813Z,101757.69
2023-06-16T10:52:45.118Z,101745.00
2023-06-16T10:55:39.348Z,101740.28
2023-06-16T10:58:20.284Z,101738.81
2023-06-16T11:00:59.971Z,101747.22
2023-06-16T11:03:43.896Z,101739.13
2023-06-16T11:06:12.102Z,101737.09
2023-06-16T11:09:00.210Z,101744.00
2023-06-16T11:11:34.570Z,101738.78
2023-06-16T11:14:02.638Z,101744.72
2023-06-16T11:16:30.126Z,101740.16
2023-06-16T11:18:59.180Z,101739.97
2023-06-16T11:21:31.748Z,101736.09
2023-06-16T11:24:09.852Z,101733.59
2023-06-16T11:26:37.521Z,101741.34
2023-06-16T11:29:08.619Z,101740.00
2023-06-16T11:31:37.326Z,101734.63
2023-06-16T11:34:13.027Z,101738.31
2023-06-16T11:36:49.403Z,101730.38
2023-06-16T11:39:18.583Z,101739.69
2023-06-16T11:41:57.581Z,101734.28
2023-06-16T11:44:29.014Z,101727.34
2023-06-16T11:46:56.965Z,101737.16
2023-06-16T11:49:25.240Z,101724.97
2023-06-16T11:51:53.156Z,101723.63
2023-06-16T11:54:22.225Z,101722.25
2023-06-16T11:56:52.258Z,101720.56
2023-06-16T11:59:20.244Z,101720.88
2023-06-16T12:01:48.206Z,101721.53
2023-06-16T12:04:15.785Z,101722.41
2023-06-16T12:06:43.215Z,101719.34
2023-06-16T12:09:10.675Z,101712.91
2023-06-16T12:11:37.959Z,101716.63
2023-06-16T12:14:05.168Z,101720.69
2023-06-16T12:16:32.546Z,101712.09
2023-06-16T12:19:00.362Z,101717.84
2023-06-16T12:21:31.876Z,101718.81
2023-06-16T12:24:01.372Z,101724.38
2023-06-16T12:26:41.693Z,101723.00
2023-06-16T12:29:16.745Z,101715.19
2023-06-16T12:31:55.943Z,101726.53
2023-06-16T12:34:37.345Z,101710.13
2023-06-16T12:37:08.197Z,101718.25
2023-06-16T12:39:35.953Z,101721.44
2023-06-16T12:42:06.094Z,101719.94
2023-06-16T12:44:45.271Z,101711.44
2023-06-16T12:47:13.860Z,101721.44
2023-06-16T12:49:41.249Z,101722.78
2023-06-16T12:52:11.333Z,101724.91
2023-06-16T12:54:38.827Z,101717.91
2023-06-16T12:57:06.404Z,101720.22
2023-06-16T12:59:34.240Z,101722.38
2023-06-16T13:02:01.661Z,101724.38
2023-06-16T13:04:29.598Z,101726.19
2023-06-16T13:06:57.331Z,101726.56
2023-06-16T13:09:24.619Z,101710.44
2023-06-16T13:11:54.591Z,101724.72
2023-06-16T13:14:23.325Z,101713.59
2023-06-16T13:16:51.317Z,101730.22
2023-06-16T13:19:18.748Z,101720.91
2023-06-16T13:21:46.077Z,101716.69
2023-06-16T13:24:13.633Z,101726.53
2023-06-16T13:26:41.562Z,101717.78
2023-06-16T13:29:09.616Z,101719.09
2023-06-16T13:31:36.817Z,101708.63
2023-06-16T13:34:04.271Z,101716.09
2023-06-16T13:36:31.516Z,101710.56
2023-06-16T13:38:58.698Z,101704.03
2023-06-16T13:41:28.582Z,101702.06
2023-06-16T13:43:56.095Z,101696.63
2023-06-16T13:46:23.449Z,101706.56
2023-06-16T13:48:50.851Z,101701.75
2023-06-16T13:51:18.126Z,101699.13
2023-06-16T13:53:45.424Z,101703.94
2023-06-16T13:56:12.848Z,101699.34
2023-06-16T13:58:40.108Z,101698.03
2023-06-16T14:01:07.510Z,101688.16
2023-06-16T14:03:34.953Z,101688.03
2023-06-16T14:06:02.877Z,101686.88
2023-06-16T14:08:30.627Z,101687.28
2023-06-16T14:10:58.296Z,101680.69
2023-06-16T14:13:26.077Z,101680.34
2023-06-16T14:15:53.389Z,101682.34
2023-06-16T14:18:20.723Z,101680.47
2023-06-16T14:20:48.014Z,101681.78
2023-06-16T14:23:18.101Z,101688.13
2023-06-16T14:25:46.848Z,101675.00
2023-06-16T14:28:15.788Z,101679.59
2023-06-16T14:30:43.420Z,101683.19
2023-06-16T14:33:12.055Z,101670.81
2023-06-16T14:35:40.166Z,101670.13
2023-06-16T14:38:07.525Z,101674.78
2023-06-16T14:40:37.816Z,101680.09
2023-06-16T16:25:34.554Z,101600.16
2023-06-16T16:28:02.099Z,101603.38
2023-06-16T16:30:29.634Z,101602.72
2023-06-16T16:32:57.021Z,101607.50
2023-06-16T16:35:24.572Z,101607.00
2023-06-16T16:37:51.894Z,101604.97
2023-06-16T16:40:19.424Z,101595.03
2023-06-16T16:42:47.895Z,101594.00
2023-06-16T16:45:16.187Z,101596.75
2023-06-16T16:47:43.717Z,101605.69
2023-06-16T16:50:11.535Z,101595.03
2023-06-16T16:52:39.349Z,101600.59
2023-06-16T16:55:06.855Z,101598.97
2023-06-16T16:57:34.314Z,101593.75
2023-06-16T17:00:01.554Z,101596.31
2023-06-16T17:02:29.324Z,101592.41
2023-06-16T17:04:56.821Z,101596.78
2023-06-16T17:07:24.421Z,101591.59
2023-06-16T17:09:51.601Z,101594.94
2023-06-16T17:12:18.869Z,101594.59
2023-06-16T17:14:46.123Z,101595.19
2023-06-16T17:17:13.616Z,101591.63
2023-06-16T17:19:40.984Z,101594.16
2023-06-16T17:22:08.159Z,101591.16
2023-06-16T17:24:35.585Z,101587.97
2023-06-16T17:27:02.865Z,101592.34
2023-06-16T17:29:30.121Z,101584.09
2023-06-16T17:31:57.439Z,101585.25
2023-06-16T17:34:27.220Z,101587.44
2023-06-16T17:36:58.797Z,101584.53
2023-06-16T17:39:26.414Z,101585.06
2023-06-16T17:41:55.537Z,101581.38
2023-06-16T17:44:24.046Z,101572.97
2023-06-16T17:46:51.763Z,101576.50
2023-06-16T17:49:20.998Z,101575.19
2023-06-16T17:51:48.335Z,101575.53
2023-06-16T17:54:15.910Z,101574.00
2023-06-16T17:56:43.258Z,101574.53
2023-06-16T17:59:10.649Z,101577.72
2023-06-16T18:01:39.594Z,101579.59
2023-06-16T18:04:06.779Z,101579.41
2023-06-16T18:06:33.967Z,101586.19
2023-06-16T18:09:01.410Z,101589.06
2023-06-16T18:11:29.038Z,101585.69
2023-06-16T18:13:56.319Z,101586.69
2023-06-16T18:16:24.539Z,101584.84
2023-06-16T18:18:51.980Z,101588.06
2023-06-16T18:21:19.390Z,101584.53
2023-06-16T18:23:46.595Z,101582.47
2023-06-16T18:26:13.929Z,101584.50
2023-06-16T18:28:41.171Z,101582.31
2023-06-16T18:31:08.397Z,101584.53
2023-06-16T18:33:36.624Z,101584.03
2023-06-16T18:36:03.955Z,101580.16
2023-06-16T18:38:31.149Z,101585.75
2023-06-16T18:40:58.360Z,101588.13
2023-06-16T18:43:28.207Z,101576.16
2023-06-16T18:45:56.069Z,101580.88
2023-06-16T18:48:26.681Z,101572.78
2023-06-16T18:50:54.515Z,101577.16
2023-06-16T18:53:23.534Z,101578.88
2023-06-16T18:55:52.025Z,101582.75
2023-06-16T18:58:19.187Z,101587.66
2023-06-16T19:00:46.473Z,101583.63
2023-06-16T19:03:13.876Z,101594.22
2023-06-16T19:05:42.868Z,101599.75
2023-06-16T19:08:15.647Z,101602.78
2023-06-16T19:10:42.965Z,101605.97
2023-06-16T19:13:10.775Z,101605.97
2023-06-16T19:15:38.600Z,101598.56
2023-06-16T19:18:06.090Z,101595.19
2023-06-16T19:20:33.324Z,101596.38
2023-06-16T19:23:01.101Z,101603.06
2023-06-16T19:25:28.770Z,101605.94
2023-06-16T19:27:56.043Z,101606.28
2023-06-16T19:30:23.510Z,101615.38
2023-06-16T19:32:51.035Z,101604.41
2023-06-16T19:35:20.553Z,101611.13
2023-06-16T19:37:47.719Z,101605.41
2023-06-16T19:40:15.430Z,101607.88
2023-06-16T19:42:42.918Z,101613.91
2023-06-16T19:45:10.857Z,101616.47
2023-06-16T19:47:39.137Z,101614.59
2023-06-16T19:50:07.034Z,101623.66
2023-06-16T19:52:34.613Z,101621.28
2023-06-16T19:55:02.023Z,101639.41
2023-06-16T19:57:29.479Z,101642.28
2023-06-16T19:59:56.761Z,101642.59
2023-06-16T20:02:24.093Z,101634.78
2023-06-16T20:04:53.076Z,101645.34
2023-06-16T20:07:22.096Z,101641.97
2023-06-16T20:09:49.427Z,101642.59
2023-06-16T20:12:16.634Z,101645.00
2023-06-16T20:14:43.947Z,101652.38
2023-06-16T20:17:11.148Z,101654.53
2023-06-16T20:19:40.234Z,101653.03
2023-06-16T20:22:07.663Z,101650.78
2023-06-16T20:24:35.047Z,101650.63
2023-06-16T20:27:02.306Z,101648.25
2023-06-16T20:29:29.889Z,101647.34
2023-06-16T20:31:57.232Z,101642.75
2023-06-16T20:34:24.413Z,101645.06
2023-06-16T20:36:51.633Z,101644.69
2023-06-16T20:39:19.311Z,101644.97
2023-06-16T20:41:46.543Z,101643.69
2023-06-16T20:44:16.048Z,101644.13
2023-06-16T20:46:43.965Z,101640.06
2023-06-16T20:49:11.369Z,101644.06
2023-06-16T20:51:38.657Z,101645.25
2023-06-16T20:54:08.561Z,101637.69
2023-06-16T20:56:36.041Z,101637.16
2023-06-16T20:59:03.865Z,101631.78
2023-06-16T21:01:41.063Z,101630.09
2023-06-16T21:04:13.059Z,101630.69
2023-06-16T21:06:41.763Z,101624.78
2023-06-16T21:09:11.782Z,101623.09
2023-06-16T21:11:39.229Z,101623.78
2023-06-16T21:14:07.482Z,101623.22
2023-06-16T21:16:34.942Z,101611.78
2023-06-16T21:19:02.741Z,101617.47
2023-06-16T21:21:30.046Z,101616.25
2023-06-16T21:23:58.464Z,101622.22
2023-06-16T21:26:26.237Z,101614.06
2023-06-16T21:28:53.677Z,101614.91
2023-06-16T21:31:21.280Z,101614.22
2023-06-16T21:33:48.530Z,101620.84
2023-06-16T21:36:15.931Z,101626.38
2023-06-16T21:38:45.088Z,101626.28
2023-06-16T21:41:12.362Z,101618.53
2023-06-16T21:43:39.683Z,101615.03
2023-06-16T21:46:07.152Z,101609.84
2023-06-16T21:48:34.389Z,101603.81
2023-06-16T21:51:01.596Z,101591.88
2023-06-16T21:53:29.090Z,101607.84
2023-06-16T21:55:56.300Z,101601.59
2023-06-16T21:58:23.567Z,101607.84
2023-06-16T22:00:50.985Z,101609.66
2023-06-16T22:03:18.986Z,101616.03
2023-06-16T22:05:46.341Z,101615.50
2023-06-16T22:08:13.499Z,101616.34
2023-06-16T22:10:42.275Z,101618.59
2023-06-16T22:13:10.085Z,101610.28
2023-06-16T22:15:37.344Z,101618.06
2023-06-16T22:18:04.842Z,101611.88
2023-06-16T22:20:32.526Z,101614.16
2023-06-16T22:22:59.677Z,101620.81
2023-06-16T22:25:26.894Z,101617.72
2023-06-16T22:27:54.252Z,101621.00
2023-06-16T22:30:22.235Z,101621.13
2023-06-16T22:32:50.908Z,101621.78
2023-06-16T22:35:18.227Z,101623.16
2023-06-16T22:37:45.371Z,101614.09
2023-06-16T22:40:13.019Z,101610.25
2023-06-16T22:42:40.148Z,101610.69
2023-06-16T22:45:08.079Z,101606.19
2023-06-16T22:47:36.274Z,101611.84
2023-06-16T22:50:03.986Z,101613.69
2023-06-16T22:52:31.188Z,101607.88
2023-06-16T22:54:58.339Z,101615.22
2023-06-16T22:57:25.479Z,101603.34
2023-06-16T22:59:52.695Z,101607.16
2023-06-16T23:02:19.839Z,101610.38
2023-06-16T23:04:47.508Z,101608.53
2023-06-16T23:07:14.710Z,101611.28
2023-06-16T23:09:42.027Z,101607.88
2023-06-16T23:12:09.371Z,101600.28
2023-06-16T23:14:36.528Z,101599.16
2023-06-16T23:17:03.827Z,101599.16
2023-06-16T23:19:31.596Z,101600.44
2023-06-16T23:21:59.643Z,101591.66
2023-06-16T23:24:26.855Z,101592.66
2023-06-16T23:26:55.766Z,101585.75
2023-06-16T23:29:23.385Z,101579.22
2023-06-16T23:31:50.579Z,101577.56
2023-06-16T23:34:18.231Z,101572.03
2023-06-16T23:36:46.396Z,101578.13
2023-06-16T23:39:13.577Z,101581.22
2023-06-16T23:41:40.850Z,101588.84
2023-06-16T23:44:08.790Z,101595.22
2023-06-16T23:46:36.075Z,101588.59
2023-06-16T23:49:03.252Z,101590.84
2023-06-16T23:51:30.403Z,101590.84
2023-06-16T23:53:57.542Z,101590.28
2023-06-16T23:56:24.741Z,101588.88
2023-06-16T23:58:52.066Z,101591.97
